createdAt,value
2022-12-08T00:00:49.363Z,11.40
2022-12-08T00:03:16.437Z,11.80
2022-12-08T00:06:06.214Z,9.18
2022-12-08T00:08:52.056Z,9.82
2022-12-08T00:11:19.747Z,10.32
2022-12-08T00:13:46.384Z,9.32
2022-12-08T00:16:13.296Z,10.73
2022-12-08T00:18:40.221Z,11.95
2022-12-08T00:21:06.791Z,8.40
2022-12-08T00:23:33.324Z,9.68
2022-12-08T00:26:07.201Z,8.63
2022-12-08T00:28:35.019Z,10.18
2022-12-08T00:31:08.844Z,9.85
2022-12-08T00:33:35.528Z,10.77
2022-12-08T00:36:10.882Z,10.70
2022-12-08T00:38:38.630Z,13.20
2022-12-08T00:41:11.842Z,10.10
2022-12-08T00:43:38.474Z,12.32
2022-12-08T00:46:05.324Z,12.27
2022-12-08T00:48:32.118Z,9.45
2022-12-08T00:50:58.731Z,11.10
2022-12-08T00:53:25.227Z,8.85
2022-12-08T00:55:51.728Z,10.30
2022-12-08T00:58:18.484Z,11.10
2022-12-08T01:00:45.356Z,10.93
2022-12-08T01:03:13.244Z,9.57
2022-12-08T01:05:39.896Z,9.80
2022-12-08T01:08:07.361Z,8.30
2022-12-08T01:10:38.760Z,10.48
2022-12-08T01:13:05.308Z,11.90
2022-12-08T01:15:31.844Z,10.82
2022-12-08T01:17:58.665Z,9.30
2022-12-08T01:20:25.262Z,11.98
2022-12-08T01:22:51.798Z,9.25
2022-12-08T01:25:18.610Z,10.43
2022-12-08T01:27:45.305Z,10.70
2022-12-08T01:30:13.331Z,9.63
2022-12-08T01:32:39.882Z,9.52
2022-12-08T01:35:06.629Z,9.95
2022-12-08T01:37:33.216Z,10.10
2022-12-08T01:39:59.760Z,8.80
2022-12-08T01:42:26.502Z,8.63
2022-12-08T01:44:56.625Z,9.10
2022-12-08T01:47:27.552Z,9.07
2022-12-08T01:49:54.253Z,9.43
2022-12-08T01:52:27.266Z,8.30
2022-12-08T01:54:58.841Z,11.50
2022-12-08T01:57:39.280Z,6.80
2022-12-08T02:00:09.364Z,8.13
2022-12-08T02:02:51.540Z,6.95
2022-12-08T02:05:21.724Z,6.88
2022-12-08T02:07:49.358Z,8.90
2022-12-08T02:10:19.005Z,6.20
2022-12-08T02:12:46.443Z,7.65
2022-12-08T02:15:14.789Z,6.22
2022-12-08T02:18:04.028Z,6.35
2022-12-08T02:20:37.480Z,8.32
2022-12-08T02:23:23.935Z,8.13
2022-12-08T02:26:27.594Z,8.02
2022-12-08T02:29:16.026Z,7.78
2022-12-08T02:32:04.252Z,8.68
2022-12-08T02:34:51.686Z,8.35
2022-12-08T02:37:24.092Z,9.82
2022-12-08T02:40:23.049Z,11.23
2022-12-08T02:42:58.104Z,9.60
2022-12-08T02:45:43.543Z,10.50
2022-12-08T02:48:10.917Z,9.00
2022-12-08T02:50:37.706Z,8.55
2022-12-08T02:56:04.053Z,9.77
2022-12-08T02:58:52.370Z,10.77
2022-12-08T03:01:34.220Z,8.95
2022-12-08T03:04:47.201Z,8.18
2022-12-08T03:07:20.177Z,10.23
2022-12-08T03:09:54.597Z,10.07
2022-12-08T03:12:32.958Z,8.90
2022-12-08T03:15:09.009Z,7.70
2022-12-08T03:17:38.783Z,8.73
2022-12-08T03:20:12.202Z,7.93
2022-12-08T03:22:41.308Z,10.45
2022-12-08T03:25:10.421Z,7.90
2022-12-08T03:27:37.091Z,8.30
2022-12-08T03:30:04.513Z,8.77
2022-12-08T03:32:47.954Z,8.85
2022-12-08T03:35:17.819Z,6.70
2022-12-08T03:37:44.501Z,7.10
2022-12-08T03:40:16.298Z,7.13
2022-12-08T03:42:42.891Z,5.70
2022-12-08T03:45:09.760Z,6.70
2022-12-08T03:47:36.864Z,5.22
2022-12-08T03:50:04.338Z,4.80
2022-12-08T03:52:31.044Z,4.55
2022-12-08T03:54:57.497Z,4.70
2022-12-08T03:57:24.120Z,5.72
2022-12-08T03:59:50.660Z,3.00
2022-12-08T04:02:17.321Z,4.13
2022-12-08T04:04:44.183Z,1.23
2022-12-08T04:07:10.745Z,1.45
2022-12-08T04:09:37.290Z,2.22
2022-12-08T04:12:04.075Z,2.33
2022-12-08T04:14:30.575Z,1.67
2022-12-08T04:16:57.371Z,1.13
2022-12-08T04:19:23.867Z,3.60
2022-12-08T04:21:50.449Z,3.08
2022-12-08T04:24:17.078Z,2.55
2022-12-08T04:26:43.612Z,1.92
2022-12-08T04:29:10.233Z,3.53
2022-12-08T04:31:36.792Z,2.35
2022-12-08T04:34:03.343Z,2.53
2022-12-08T04:36:29.868Z,4.10
2022-12-08T04:38:56.435Z,4.63
2022-12-08T04:41:22.904Z,4.70
2022-12-08T04:43:49.440Z,4.65
2022-12-08T04:46:16.033Z,4.70
2022-12-08T04:48:42.861Z,4.65
2022-12-08T04:51:15.852Z,5.32
2022-12-08T04:53:46.454Z,5.82
2022-12-08T04:58:45.502Z,4.63
2022-12-08T05:01:12.829Z,5.47
2022-12-08T05:03:39.406Z,4.40
2022-12-08T05:06:06.253Z,5.25
2022-12-08T05:08:33.406Z,5.32
2022-12-08T05:11:08.693Z,5.97
2022-12-08T05:13:35.233Z,5.95
2022-12-08T05:16:07.571Z,5.90
2022-12-08T05:18:34.709Z,4.00
2022-12-08T05:21:01.950Z,5.05
2022-12-08T05:23:28.533Z,5.47
2022-12-08T05:25:55.076Z,4.53
2022-12-08T05:31:08.534Z,5.55
2022-12-08T05:33:35.050Z,3.25
2022-12-08T05:36:01.546Z,6.80
2022-12-08T05:38:30.737Z,2.83
2022-12-08T05:40:57.210Z,3.33
2022-12-08T05:43:23.657Z,3.97
2022-12-08T05:45:50.322Z,3.40
2022-12-08T05:48:17.037Z,3.33
2022-12-08T05:50:48.006Z,4.85
2022-12-08T05:53:15.666Z,3.88
2022-12-08T05:55:43.261Z,1.70
2022-12-08T05:58:19.297Z,3.17
2022-12-08T06:00:46.680Z,1.63
2022-12-08T06:03:15.565Z,2.42
2022-12-08T06:05:43.462Z,1.73
2022-12-08T06:08:10.707Z,3.55
2022-12-08T06:10:44.885Z,3.88
2022-12-08T06:13:11.463Z,2.63
2022-12-08T06:15:39.500Z,2.10
2022-12-08T06:18:07.502Z,2.15
2022-12-08T06:20:34.619Z,1.67
2022-12-08T06:23:01.257Z,2.72
2022-12-08T06:25:27.800Z,3.22
2022-12-08T06:27:54.367Z,2.38
2022-12-08T06:30:20.877Z,2.38
2022-12-08T06:32:47.780Z,3.95
2022-12-08T06:35:14.395Z,1.60
2022-12-08T06:37:41.198Z,1.75
2022-12-08T06:40:08.385Z,1.30
2022-12-08T06:42:43.713Z,1.92
2022-12-08T06:45:12.144Z,1.23
2022-12-08T06:47:38.783Z,6.45
2022-12-08T06:50:06.746Z,3.75
2022-12-08T06:52:34.902Z,2.50
2022-12-08T06:55:03.175Z,2.65
2022-12-08T06:57:29.883Z,1.42
2022-12-08T06:59:56.424Z,2.20
2022-12-08T07:02:23.812Z,1.40
2022-12-08T07:04:51.431Z,1.80
2022-12-08T07:07:18.036Z,1.90
2022-12-08T07:09:44.607Z,1.70
2022-12-08T07:12:11.238Z,2.00
2022-12-08T07:14:37.832Z,2.97
2022-12-08T07:17:04.776Z,3.65
2022-12-08T07:19:31.352Z,4.35
2022-12-08T07:21:57.925Z,3.80
2022-12-08T07:24:24.704Z,4.80
2022-12-08T07:26:51.334Z,4.28
2022-12-08T07:29:23.059Z,4.43
2022-12-08T07:31:52.509Z,6.22
2022-12-08T07:34:19.123Z,5.43
2022-12-08T07:36:45.778Z,4.43
2022-12-08T07:39:12.404Z,6.72
2022-12-08T07:41:38.996Z,4.40
2022-12-08T07:44:05.528Z,7.00
2022-12-08T07:46:32.020Z,6.15
2022-12-08T07:48:58.894Z,4.80
2022-12-08T07:51:25.503Z,5.43
2022-12-08T07:53:54.632Z,5.72
2022-12-08T07:56:22.504Z,5.65
2022-12-08T07:58:49.342Z,6.65
2022-12-08T08:01:25.470Z,5.72
2022-12-08T08:03:52.615Z,6.03
2022-12-08T08:06:19.224Z,4.78
2022-12-08T08:08:46.064Z,4.00
2022-12-08T08:11:17.422Z,4.25
2022-12-08T08:13:47.252Z,4.13
2022-12-08T08:16:13.874Z,4.07
2022-12-08T08:18:41.056Z,3.75
2022-12-08T08:21:43.315Z,5.55
2022-12-08T08:23:54.391Z,3.25
2022-12-08T08:26:20.871Z,4.05
2022-12-08T08:28:48.239Z,3.28
2022-12-08T08:31:14.796Z,2.30
2022-12-08T08:33:41.438Z,2.42
2022-12-08T08:36:09.172Z,2.38
2022-12-08T08:38:39.310Z,3.90
2022-12-08T08:41:10.650Z,2.92
2022-12-08T08:43:38.822Z,5.75
2022-12-08T08:46:09.253Z,4.60
2022-12-08T08:48:36.329Z,2.97
2022-12-08T08:51:11.691Z,3.35
2022-12-08T08:53:38.616Z,3.58
2022-12-08T08:56:13.745Z,2.53
2022-12-08T08:58:41.125Z,3.05
2022-12-08T09:01:08.310Z,4.80
2022-12-08T09:03:34.914Z,3.20
2022-12-08T09:06:01.651Z,3.30
2022-12-08T09:08:31.570Z,3.50
2022-12-08T09:10:58.208Z,2.55
2022-12-08T09:13:24.880Z,2.08
2022-12-08T09:15:51.651Z,0.90
2022-12-08T09:18:19.781Z,2.13
2022-12-08T09:20:46.585Z,3.20
2022-12-08T09:23:13.304Z,1.95
2022-12-08T09:25:39.871Z,2.05
2022-12-08T09:28:08.587Z,3.60
2022-12-08T09:30:35.125Z,3.45
2022-12-08T09:33:01.671Z,2.65
2022-12-08T09:35:28.243Z,3.33
2022-12-08T09:37:55.031Z,2.53
2022-12-08T09:40:24.090Z,3.10
2022-12-08T09:42:58.206Z,4.03
2022-12-08T09:45:30.000Z,3.17
2022-12-08T09:48:06.795Z,2.63
2022-12-08T09:50:40.893Z,2.83
2022-12-08T09:53:16.950Z,3.55
2022-12-08T09:55:50.876Z,2.50
2022-12-08T09:58:47.640Z,1.80
2022-12-08T10:01:14.852Z,4.95
2022-12-08T10:03:44.818Z,1.33
2022-12-08T10:06:23.335Z,2.75
2022-12-08T10:09:01.823Z,3.42
2022-12-08T10:11:39.756Z,2.63
2022-12-08T10:14:12.225Z,2.72
2022-12-08T10:16:48.429Z,3.05
2022-12-08T10:19:21.730Z,3.90
2022-12-08T10:21:49.001Z,2.90
2022-12-08T10:24:41.140Z,1.55
2022-12-08T10:27:12.652Z,1.90
2022-12-08T10:29:40.557Z,2.45
2022-12-08T10:32:18.150Z,3.40
2022-12-08T10:35:12.169Z,3.15
2022-12-08T10:37:39.681Z,2.65
2022-12-08T10:40:09.208Z,3.65
2022-12-08T10:42:40.137Z,2.30
2022-12-08T10:45:09.672Z,1.55
2022-12-08T10:47:42.503Z,2.03
2022-12-08T10:50:22.831Z,1.52
2022-12-08T10:52:58.020Z,1.80
2022-12-08T10:55:24.715Z,2.40
2022-12-08T10:57:51.402Z,2.25
2022-12-08T11:00:21.328Z,1.65
2022-12-08T11:02:54.805Z,1.20
2022-12-08T11:05:23.464Z,1.38
2022-12-08T11:07:53.027Z,1.65
2022-12-08T11:10:26.761Z,0.80
2022-12-08T11:12:53.285Z,2.67
2022-12-08T11:15:20.331Z,2.13
2022-12-08T11:18:03.852Z,2.67
2022-12-08T11:20:39.255Z,2.17
2022-12-08T11:23:20.194Z,2.33
2022-12-08T11:25:47.268Z,1.48
2022-12-08T11:28:14.346Z,1.45
2022-12-08T11:30:50.677Z,1.98
2022-12-08T11:33:21.714Z,2.80
2022-12-08T11:35:54.436Z,2.75
2022-12-08T11:38:23.865Z,1.80
2022-12-08T11:40:54.207Z,4.38
2022-12-08T11:43:35.782Z,3.47
2022-12-08T11:46:09.881Z,3.70
2022-12-08T11:48:51.809Z,5.75
2022-12-08T11:51:29.234Z,4.13
2022-12-08T11:56:49.167Z,4.18
2022-12-08T11:59:44.431Z,5.90
2022-12-08T12:02:18.111Z,4.25
2022-12-08T12:05:05.304Z,4.22
2022-12-08T12:07:52.190Z,3.22
2022-12-08T12:10:18.628Z,3.40
2022-12-08T12:13:03.967Z,3.40
2022-12-08T12:16:03.062Z,4.50
2022-12-08T12:18:50.960Z,2.83
2022-12-08T12:21:22.772Z,2.83
2022-12-08T12:23:56.545Z,1.67
2022-12-08T12:26:26.242Z,1.50
2022-12-08T12:28:55.419Z,2.60
2022-12-08T12:31:26.434Z,2.42
2022-12-08T12:33:57.002Z,2.20
2022-12-08T12:36:25.494Z,2.92
2022-12-08T12:39:09.369Z,1.77
2022-12-08T12:41:41.654Z,1.73
2022-12-08T12:44:14.086Z,2.80
2022-12-08T12:47:01.714Z,2.83
2022-12-08T12:49:40.524Z,2.03
2022-12-08T12:52:10.242Z,5.25
2022-12-08T12:54:41.907Z,3.53
2022-12-08T12:57:08.440Z,4.07
2022-12-08T12:59:55.243Z,3.35
2022-12-08T13:02:34.580Z,4.53
2022-12-08T13:05:09.557Z,5.85
2022-12-08T13:07:44.920Z,3.97
2022-12-08T13:10:33.202Z,3.58
2022-12-08T13:13:18.033Z,4.90
2022-12-08T13:16:18.449Z,2.95
2022-12-08T13:18:51.163Z,2.78
2022-12-08T13:21:23.210Z,6.20
2022-12-08T13:24:14.264Z,3.35
2022-12-08T13:26:45.978Z,3.30
2022-12-08T13:29:23.989Z,3.60
2022-12-08T13:31:57.686Z,2.58
2022-12-08T13:34:48.470Z,3.22
2022-12-08T13:37:24.015Z,2.33
2022-12-08T13:40:09.450Z,2.97
2022-12-08T13:42:43.845Z,2.53
2022-12-08T13:45:36.222Z,3.15
2022-12-08T13:48:26.599Z,4.10
2022-12-08T13:57:10.071Z,3.85
2022-12-08T13:59:45.295Z,4.72
2022-12-08T14:02:18.979Z,3.95
2022-12-08T14:07:38.861Z,5.95
2022-12-08T14:10:14.251Z,6.05
2022-12-08T14:12:45.845Z,7.50
2022-12-08T14:15:15.389Z,4.70
2022-12-08T14:17:52.167Z,4.65
2022-12-08T14:20:26.182Z,4.82
2022-12-08T14:22:53.697Z,7.80
2022-12-08T14:25:21.335Z,7.93
2022-12-08T14:27:48.848Z,5.88
2022-12-08T14:30:36.249Z,5.50
2022-12-08T14:33:04.795Z,4.75
2022-12-08T14:35:36.931Z,6.82
2022-12-08T14:38:13.779Z,4.53
2022-12-08T14:40:42.884Z,6.63
2022-12-08T14:43:09.418Z,9.88
2022-12-08T14:45:40.862Z,5.30
2022-12-08T14:48:27.704Z,6.18
2022-12-08T14:50:57.744Z,5.90
2022-12-08T14:53:25.581Z,6.40
2022-12-08T14:55:52.334Z,7.35
2022-12-08T14:58:25.746Z,8.18
2022-12-08T15:00:56.834Z,7.18
2022-12-08T15:03:24.394Z,6.85
2022-12-08T15:05:53.083Z,8.25
2022-12-08T15:08:20.189Z,7.07
2022-12-08T15:10:48.284Z,8.75
2022-12-08T15:13:16.336Z,8.38
2022-12-08T15:15:53.720Z,6.57
2022-12-08T15:21:09.099Z,6.18
2022-12-08T15:23:44.998Z,7.25
2022-12-08T15:26:22.143Z,6.10
2022-12-08T15:28:48.613Z,6.93
2022-12-08T15:31:15.983Z,6.50
2022-12-08T15:33:42.561Z,7.40
2022-12-08T15:36:09.759Z,7.32
2022-12-08T15:38:37.104Z,8.48
2022-12-08T15:41:04.297Z,7.53
2022-12-08T15:43:31.923Z,8.20
2022-12-08T15:46:00.054Z,9.23
2022-12-08T15:48:30.721Z,10.00
2022-12-08T15:50:58.123Z,9.95
2022-12-08T15:53:24.708Z,10.07
2022-12-08T15:56:26.387Z,8.68
2022-12-08T15:58:53.661Z,8.15
2022-12-08T16:01:21.070Z,11.45
2022-12-08T16:09:33.102Z,9.30
2022-12-08T16:17:33.114Z,8.95
2022-12-08T16:20:00.338Z,10.93
2022-12-08T16:22:54.460Z,9.90
2022-12-08T16:25:20.017Z,12.32
2022-12-08T16:28:01.184Z,9.80
2022-12-08T16:30:30.031Z,9.55
2022-12-08T16:32:56.478Z,11.77
2022-12-08T16:35:25.137Z,9.18
2022-12-08T16:37:53.035Z,9.88
2022-12-08T16:40:19.643Z,10.77
2022-12-08T16:42:48.421Z,11.02
2022-12-08T16:45:22.553Z,11.68
2022-12-08T16:47:55.511Z,11.88
2022-12-08T16:50:23.521Z,11.90
2022-12-08T16:52:55.828Z,10.43
2022-12-08T16:55:22.426Z,10.70
2022-12-08T16:57:49.265Z,9.75
2022-12-08T17:00:18.895Z,9.85
2022-12-08T17:02:45.924Z,9.15
2022-12-08T17:05:15.134Z,9.50
2022-12-08T17:07:47.037Z,13.68
2022-12-08T17:10:18.481Z,10.32
2022-12-08T17:12:45.803Z,9.52
2022-12-08T17:15:15.844Z,10.57
2022-12-08T17:17:42.991Z,8.75
2022-12-08T17:20:14.021Z,10.23
2022-12-08T17:22:41.070Z,10.50
2022-12-08T17:25:08.043Z,9.77
2022-12-08T17:27:36.672Z,11.85
2022-12-08T17:30:04.722Z,16.23
2022-12-08T17:32:31.565Z,12.75
2022-12-08T17:34:58.173Z,13.63
2022-12-08T17:37:24.829Z,12.70
2022-12-08T17:39:51.309Z,12.52
2022-12-08T17:42:17.792Z,12.02
2022-12-08T17:44:46.605Z,11.85
2022-12-08T17:47:13.216Z,11.13
2022-12-08T17:49:39.715Z,10.88
2022-12-08T17:52:10.588Z,12.85
2022-12-08T17:54:37.521Z,13.75
2022-12-08T17:57:04.657Z,13.63
2022-12-08T17:59:31.288Z,12.60
2022-12-08T18:01:58.639Z,11.10
2022-12-08T18:04:26.708Z,11.73
2022-12-08T18:06:54.275Z,14.23
2022-12-08T18:09:21.432Z,12.55
2022-12-08T18:11:48.094Z,13.68
2022-12-08T18:14:15.359Z,13.23
2022-12-08T18:16:44.915Z,12.43
2022-12-08T18:19:13.026Z,14.95
2022-12-08T18:21:41.440Z,13.63
2022-12-08T18:24:09.663Z,16.48
2022-12-08T18:26:36.510Z,19.17
2022-12-08T18:29:03.699Z,20.10
2022-12-08T18:31:30.384Z,17.13
2022-12-08T18:33:56.952Z,16.75
2022-12-08T18:36:25.300Z,18.50
2022-12-08T18:38:54.397Z,20.90
2022-12-08T18:41:26.137Z,20.30
2022-12-08T18:43:54.504Z,20.85
2022-12-08T18:46:21.912Z,20.20
2022-12-08T18:48:50.929Z,22.02
2022-12-08T18:51:19.744Z,21.92
2022-12-08T18:53:46.836Z,21.50
2022-12-08T18:56:39.661Z,21.50
2022-12-08T18:59:08.865Z,24.15
2022-12-08T19:01:37.747Z,21.48
2022-12-08T19:06:53.409Z,21.33
2022-12-08T19:09:26.099Z,17.38
2022-12-08T19:11:52.989Z,19.65
2022-12-08T19:14:24.147Z,17.75
2022-12-08T19:16:54.133Z,17.05
2022-12-08T19:19:21.496Z,17.48
2022-12-08T19:21:48.050Z,18.63
2022-12-08T19:24:14.680Z,21.25
2022-12-08T19:26:42.091Z,23.05
2022-12-08T19:29:09.448Z,26.23
2022-12-08T19:31:36.358Z,26.35
2022-12-08T19:34:03.120Z,24.10
2022-12-08T19:36:35.403Z,21.35
2022-12-08T19:39:21.781Z,24.52
2022-12-08T19:42:06.988Z,28.17
2022-12-08T19:44:52.345Z,24.55
2022-12-08T19:47:28.168Z,34.55
2022-12-08T19:50:15.589Z,21.45
2022-12-08T19:52:42.729Z,24.13
2022-12-08T19:55:09.780Z,24.73
2022-12-08T19:57:36.581Z,22.40
2022-12-08T20:00:04.608Z,29.15
2022-12-08T20:02:31.334Z,23.52
2022-12-08T20:04:58.139Z,31.90
2022-12-08T20:07:24.945Z,26.52
2022-12-08T20:09:51.567Z,24.80
2022-12-08T20:12:18.121Z,28.63
2022-12-08T20:14:46.180Z,26.58
2022-12-08T20:17:13.138Z,23.52
2022-12-08T20:19:39.762Z,26.35
2022-12-08T20:22:08.427Z,25.55
2022-12-08T20:24:36.028Z,30.58
2022-12-08T20:27:02.779Z,26.80
2022-12-08T20:29:29.308Z,31.27
2022-12-08T20:31:55.932Z,27.90
2022-12-08T20:34:22.566Z,25.55
2022-12-08T20:36:49.462Z,23.00
2022-12-08T20:39:18.300Z,24.25
2022-12-08T20:41:46.464Z,25.40
2022-12-08T20:44:13.272Z,23.85
2022-12-08T20:46:42.782Z,22.48
2022-12-08T20:49:13.231Z,22.70
2022-12-08T20:51:40.059Z,25.20
2022-12-08T20:54:06.756Z,31.88
2022-12-08T20:56:33.520Z,33.60
2022-12-08T20:59:00.460Z,29.67
2022-12-08T21:01:27.214Z,25.45
2022-12-08T21:03:54.658Z,23.73
2022-12-08T21:06:23.389Z,26.92
2022-12-08T21:08:51.727Z,23.90
2022-12-08T21:11:18.673Z,28.20
2022-12-08T21:13:46.822Z,29.13
2022-12-08T21:16:15.059Z,28.00
2022-12-08T21:18:42.207Z,28.65
2022-12-08T21:21:12.754Z,30.27
2022-12-08T21:23:40.198Z,33.17
2022-12-08T21:26:13.111Z,27.25
2022-12-08T21:28:40.088Z,27.98
2022-12-08T21:31:12.482Z,27.50
2022-12-08T21:33:39.606Z,29.20
2022-12-08T21:36:12.114Z,29.88
2022-12-08T21:38:40.561Z,27.17
2022-12-08T21:41:10.699Z,32.20
2022-12-08T21:43:37.768Z,34.80
2022-12-08T21:46:04.709Z,28.50
2022-12-08T21:48:31.381Z,28.75
2022-12-08T21:51:04.358Z,27.48
2022-12-08T21:53:31.097Z,30.48
2022-12-08T21:55:57.788Z,28.63
2022-12-08T21:58:26.530Z,29.92
2022-12-08T22:00:53.594Z,29.75
2022-12-08T22:03:20.741Z,31.38
2022-12-08T22:05:49.642Z,32.30
2022-12-08T22:08:16.475Z,28.10
2022-12-08T22:10:48.899Z,30.55
2022-12-08T22:13:15.804Z,31.35
2022-12-08T22:15:42.603Z,31.63
2022-12-08T22:18:09.627Z,31.75
2022-12-08T22:20:40.861Z,31.58
2022-12-08T22:23:10.274Z,32.17
2022-12-08T22:25:36.880Z,27.92
2022-12-08T22:28:03.955Z,27.13
2022-12-08T22:30:38.876Z,29.55
2022-12-08T22:33:05.786Z,29.90
2022-12-08T22:35:32.357Z,29.13
2022-12-08T22:37:58.973Z,30.92
2022-12-08T22:40:25.466Z,28.55
2022-12-08T22:42:52.242Z,30.30
2022-12-08T22:45:18.906Z,28.52
2022-12-08T22:47:45.636Z,30.48
2022-12-08T22:50:13.536Z,32.78
2022-12-08T22:52:42.822Z,32.08
2022-12-08T22:55:09.615Z,30.83
2022-12-08T22:57:36.518Z,32.15
2022-12-08T23:00:06.024Z,30.95
2022-12-08T23:02:33.038Z,28.80
2022-12-08T23:04:59.806Z,29.70
2022-12-08T23:07:26.522Z,32.83
2022-12-08T23:09:56.486Z,29.63
2022-12-08T23:12:23.213Z,33.47
2022-12-08T23:14:49.992Z,31.55
2022-12-08T23:17:16.628Z,33.97
2022-12-08T23:19:43.238Z,29.08
2022-12-08T23:22:09.805Z,36.22
2022-12-08T23:24:36.323Z,32.75
2022-12-08T23:27:03.171Z,33.70
2022-12-08T23:29:29.909Z,33.80
2022-12-08T23:31:56.653Z,29.88
2022-12-08T23:34:23.546Z,35.17
2022-12-08T23:36:50.316Z,32.67
2022-12-08T23:39:17.224Z,30.83
2022-12-08T23:41:43.825Z,30.52
2022-12-08T23:44:12.396Z,30.88
2022-12-08T23:46:39.247Z,34.03
2022-12-08T23:49:06.247Z,33.65
2022-12-08T23:51:33.102Z,32.40
2022-12-08T23:53:59.854Z,32.17
2022-12-08T23:56:30.282Z,34.03
2022-12-08T23:58:57.568Z,35.38
